Flight Track Log - Related Links

Times and Time Zones

All times are in EDT time to prevent confusion due to time zone crossing. See the JA-738J flight status page for this flight to view local times or setup timezone preferences in your user account.

Time Position Orientation Groundspeed Altitude Reporting Facility
EDT Latitude Longitude Course Direction KTS MPH feet Rate Location/Type
Mon 12:51:12 PM 41.9670 -87.9650 251° West 196 226 2,500  Level FlightAware
Mon 12:51:37 PM 41.9630 -87.9940 260° West 196 226 3,600 2,073 Climbing FlightAware
Mon 12:52:07 PM 41.9600 -88.0320 264° West 218 251 4,400 1,333 Climbing FlightAware
Mon 12:52:22 PM 41.9580 -88.0520 262° West 239 275 4,600 1,200 Climbing FlightAware
Mon 12:52:47 PM 41.9530 -88.0900 260° West 260 299 5,200 2,182 Climbing FlightAware
Mon 12:53:17 PM 41.9470 -88.1390 261° West 266 306 6,600 2,550 Climbing FlightAware
Mon 12:53:27 PM 41.9470 -88.1520 270° West 272 313 6,900 2,100 Climbing FlightAware
Mon 12:53:57 PM 41.9630 -88.1970 296° West 295 339 8,000 2,133 Climbing FlightAware
Mon 12:54:12 PM 41.9800 -88.2110 329° Northwest 322 371 8,500 2,400 Climbing FlightAware
Mon 12:54:27 PM 42.0060 -88.2160 352° North 335 386 9,200 2,400 Climbing FlightAware
Mon 12:54:47 PM 42.0320 -88.2060 16° North 345 397 9,900 1,800 Climbing FlightAware
Mon 12:55:37 PM 42.1070 -88.1320 36° Northeast 388 447 11,300 1,933 Climbing FlightAware
Mon 12:56:17 PM 42.1620 -88.0720 39° Northeast 399 459 12,800 2,259 Climbing FlightAware
Mon 12:57:02 PM 42.2340 -88.0210 28° Northeast 392 451 14,500 2,188 Climbing FlightAware
Mon 12:57:42 PM 42.3070 -88.0190 North 391 450 15,900 2,188 Climbing FlightAware
Mon 12:58:27 PM 42.3850 -88.0420 348° North 390 449 17,600 2,188 Climbing FlightAware
Mon 12:59:07 PM 42.4540 -88.0650 346° North 397 457 19,000 2,175 Climbing FlightAware
Mon 12:59:47 PM 42.5260 -88.0890 346° North 398 458 20,500 2,047 Climbing FlightAware
Mon 01:00:32 PM 42.6130 -88.1170 347° North 407 468 21,900 1,694 Climbing FlightAware
Mon 01:01:12 PM 42.6830 -88.1400 346° North 415 478 22,900 1,425 Climbing FlightAware
Mon 01:01:52 PM 42.7560 -88.1650 346° North 425 489 23,800 1,271 Climbing FlightAware
Mon 01:02:37 PM 42.8450 -88.1940 347° North 439 505 24,700 1,200 Climbing FlightAware
Mon 01:03:17 PM 42.9240 -88.2200 346° North 450 518 25,500 1,200 Climbing FlightAware
Mon 01:04:02 PM 43.0140 -88.2500 346° North 462 532 26,400 1,341 Climbing FlightAware
Mon 01:04:42 PM 43.1010 -88.2820 345° North 453 521 27,400 1,200 Climbing FlightAware
Mon 01:05:22 PM 43.1770 -88.3360 333° Northwest 445 512 28,000 847 Climbing FlightAware
Mon 01:06:07 PM 43.2530 -88.4030 327° Northwest 457 526 28,600 975 Climbing FlightAware
Mon 01:06:42 PM 43.3160 -88.4600 327° Northwest 462 532 29,300 1,050 Climbing FlightAware
Mon 01:07:27 PM 43.3970 -88.5320 327° Northwest 457 526 30,000 494 Climbing FlightAware
Mon 01:08:07 PM 43.4680 -88.5950 327° Northwest 456 525 30,000  Level FlightAware
Mon 01:08:52 PM 43.5460 -88.6640 327° Northwest 461 531 30,000  Level FlightAware
Mon 01:09:37 PM 43.6250 -88.7340 327° Northwest 464 534 30,000  Level FlightAware
Mon 01:10:17 PM 43.7040 -88.8050 327° Northwest 465 535 30,000  Level FlightAware
Mon 01:11:02 PM 43.7750 -88.8690 327° Northwest 464 534 30,000  Level FlightAware
Mon 01:11:37 PM 43.8450 -88.9320 327° Northwest 464 534 30,000  Level FlightAware
Mon 01:12:37 PM 43.9440 -89.0230 327° Northwest 462 532 30,000  Level FlightAware
Mon 01:13:22 PM 44.0310 -89.1000 328° Northwest 452 520 30,000  Level FlightAware
Mon 01:13:52 PM 44.0810 -89.1460 327° Northwest 450 518 30,000  Level FlightAware
Mon 01:14:42 PM 44.1690 -89.2260 327° Northwest 446 513 30,000  Level FlightAware
Mon 01:15:37 PM 44.2590 -89.3100 326° Northwest 445 512 30,000  Level FlightAware
Mon 01:16:22 PM 44.3380 -89.3820 327° Northwest 444 511 30,000 -333 Level FlightAware
Mon 01:17:07 PM 44.4150 -89.4530 327° Northwest 436 502 29,500 -333 Descending FlightAware
Mon 01:17:52 PM 44.4810 -89.5150 326° Northwest 436 502 29,500  Level FlightAware
Mon 01:18:42 PM 44.5520 -89.5820 326° Northwest 436 502 29,500 -743 Level FlightAware
Mon 01:19:37 PM 44.6620 -89.6830 327° Northwest 439 505 28,200 -821 Descending FlightAware
Mon 01:20:17 PM 44.7200 -89.7370 327° Northwest 439 505 28,200  Level FlightAware
Mon 01:20:57 PM 44.7770 -89.7920 326° Northwest 439 505 28,200 -126 Level FlightAware
Mon 01:21:52 PM 44.9020 -89.9070 327° Northwest 439 505 28,000 -120 Descending FlightAware
Mon 01:22:37 PM 44.9710 -89.9730 326° Northwest 439 505 28,000  Level FlightAware
Mon 01:23:17 PM 45.0280 -90.0280 326° Northwest 439 505 28,000  Level FlightAware
Mon 01:24:02 PM 45.1180 -90.1200 324° Northwest 435 501 28,000  Level FlightAware
Mon 01:24:42 PM 45.1830 -90.1870 324° Northwest 435 501 28,000  Level FlightAware
Mon 01:25:27 PM 45.2590 -90.2650 324° Northwest 434 499 28,000  Level FlightAware
Mon 01:26:07 PM 45.3240 -90.3310 324° Northwest 434 499 28,000  Level FlightAware
Mon 01:26:52 PM 45.3950 -90.4040 324° Northwest 430 495 28,000  Level FlightAware
Mon 01:27:32 PM 45.4590 -90.4700 324° Northwest 425 489 28,000  Level FlightAware
Mon 01:28:12 PM 45.5240 -90.5380 324° Northwest 422 486 28,000  Level FlightAware
Mon 01:28:57 PM 45.5950 -90.6120 324° Northwest 426 490 28,000  Level FlightAware
Mon 01:29:37 PM 45.6600 -90.6800 324° Northwest 428 493 28,000  Level FlightAware
Mon 01:30:22 PM 45.7300 -90.7520 324° Northwest 430 495 28,000  Level FlightAware
Mon 01:31:02 PM 45.7950 -90.8210 324° Northwest 436 502 28,000  Level FlightAware
Mon 01:31:47 PM 45.8700 -90.9000 324° Northwest 443 510 28,000  Level FlightAware
Mon 01:32:17 PM 45.9200 -90.9530 324° Northwest 447 514 28,000  Level FlightAware
Mon 01:33:02 PM 45.9920 -91.0290 324° Northwest 450 518 28,000  Level FlightAware
Mon 01:33:42 PM 46.0610 -91.1020 324° Northwest 453 521 28,000  Level FlightAware
Mon 01:34:12 PM 46.1110 -91.1560 323° Northwest 454 522 28,000  Level FlightAware
Mon 01:34:47 PM 46.1710 -91.2200 324° Northwest 455 524 28,000  Level FlightAware
Mon 01:35:27 PM 46.2410 -91.2940 324° Northwest 461 531 28,000  Level FlightAware
Mon 01:36:12 PM 46.3150 -91.3740 323° Northwest 462 532 28,000  Level FlightAware
Mon 01:36:52 PM 46.3820 -91.4470 323° Northwest 460 529 28,000  Level FlightAware
Mon 01:37:37 PM 46.4620 -91.5330 323° Northwest 460 529 28,000  Level FlightAware
Mon 01:38:17 PM 46.5310 -91.6080 323° Northwest 459 528 28,000  Level FlightAware
Mon 01:39:02 PM 46.6030 -91.6870 323° Northwest 462 532 28,000  Level FlightAware
Mon 01:39:42 PM 46.6730 -91.7630 323° Northwest 465 535 28,000  Level FlightAware
Mon 01:40:22 PM 46.7410 -91.8380 323° Northwest 469 540 28,000  Level FlightAware
Mon 01:41:07 PM 46.8220 -91.9270 323° Northwest 472 543 28,000  Level FlightAware
Mon 01:41:47 PM 46.8920 -92.0040 323° Northwest 473 544 28,000  Level FlightAware
Mon 01:42:27 PM 46.9610 -92.0800 323° Northwest 475 547 28,000  Level FlightAware
Mon 01:43:12 PM 47.0380 -92.1670 322° Northwest 474 545 28,000  Level FlightAware
Mon 01:43:52 PM 47.1090 -92.2450 323° Northwest 477 549 28,000  Level FlightAware
Mon 01:44:37 PM 47.1870 -92.3330 323° Northwest 477 549 28,000  Level FlightAware
Mon 01:45:17 PM 47.2590 -92.4140 323° Northwest 478 550 28,000  Level FlightAware
Mon 01:46:02 PM 47.3360 -92.5010 323° Northwest 477 549 28,000  Level FlightAware
Mon 01:46:42 PM 47.4060 -92.5800 323° Northwest 478 550 28,000  Level FlightAware
Mon 01:47:22 PM 47.4770 -92.6600 323° Northwest 482 555 28,000  Level FlightAware
Mon 01:48:07 PM 47.5580 -92.7530 322° Northwest 486 559 28,000  Level FlightAware
Mon 01:48:47 PM 47.6290 -92.8340 322° Northwest 488 562 28,000  Level FlightAware
Mon 01:49:32 PM 47.7080 -92.9250 322° Northwest 491 565 28,000  Level FlightAware
Mon 01:50:12 PM 47.7800 -93.0080 322° Northwest 488 562 28,000  Level FlightAware
Mon 01:50:52 PM 47.8510 -93.0900 322° Northwest 488 562 28,000  Level FlightAware
Mon 01:51:37 PM 47.9300 -93.1830 322° Northwest 490 564 28,000  Level FlightAware
Mon 01:52:17 PM 48.0050 -93.2690 323° Northwest 491 565 28,000  Level FlightAware
Mon 01:53:12 PM 48.0950 -93.3760 322° Northwest 492 566 28,000  Level FlightAware
Mon 01:53:52 PM 48.1550 -93.4490 321° Northwest 492 566 28,000  Level FlightAware
Mon 01:54:32 PM 48.2150 -93.5220 321° Northwest 492 566 28,000  Level FlightAware
Mon 01:55:22 PM 48.2900 -93.6140 321° Northwest 492 566 28,000  Level FlightAware
Mon 01:56:02 PM 48.3500 -93.6870 321° Northwest 492 566 28,000  Level FlightAware
Mon 01:56:42 PM 48.4100 -93.7600 321° Northwest 492 566 28,000 333 Level FlightAware
Mon 01:57:14 PM 48.5225 -93.8856 321° Northwest 491 565 28,400 638 Climbing Minneapolis Center
Mon 01:58:16 PM 48.6303 -94.0156 321° Northwest 496 571 29,000 675 Climbing Minneapolis Center
Mon 01:58:34 PM 48.6500 -94.0500 311° West 500 575 29,300 581 Climbing Winnipeg Center
Mon 01:59:18 PM 48.7383 -94.1478 324° Northwest 499 574 29,600 509 Climbing Minneapolis Center
Mon 02:00:20 PM 48.8450 -94.2772 321° Northwest 496 571 30,200 634 Climbing Minneapolis Center
Mon 02:01:21 PM 48.9711 -94.4325 321° Northwest 489 563 30,900 627 Climbing Minneapolis Center
Mon 02:02:34 PM 49.0833 -94.5667 322° Northwest 490 564 31,600 496 Climbing Winnipeg Center
Mon 02:03:34 PM 49.1833 -94.6833 323° Northwest 490 564 32,000 200 Climbing Winnipeg Center
Mon 02:04:34 PM 49.2833 -94.8333 316° Northwest 480 552 32,000  Level Winnipeg Center
Mon 02:05:34 PM 49.4000 -94.9667 323° Northwest 480 552 32,000  Level Winnipeg Center
Mon 02:06:34 PM 49.5000 -95.0833 323° Northwest 490 564 32,000  Level Winnipeg Center
Mon 02:07:34 PM 49.6000 -95.2167 319° Northwest 480 552 32,000  Level Winnipeg Center
Mon 02:08:34 PM 49.7167 -95.3667 320° Northwest 490 564 32,000  Level Winnipeg Center
Mon 02:09:34 PM 49.8167 -95.4833 323° Northwest 490 564 32,000  Level Winnipeg Center
Mon 02:10:34 PM 49.9167 -95.6333 316° Northwest 490 564 32,000  Level Winnipeg Center
Mon 02:11:34 PM 50.0167 -95.7667 319° Northwest 490 564 32,000  Level Winnipeg Center
Mon 02:12:34 PM 50.1167 -95.9000 319° Northwest 490 564 32,000  Level Winnipeg Center
Mon 02:13:34 PM 50.2333 -96.0167 327° Northwest 490 564 32,000  Level Winnipeg Center
Mon 02:14:34 PM 50.3500 -96.1833 318° Northwest 490 564 32,000 -50 Level Winnipeg Center
Mon 02:15:34 PM 50.4500 -96.3167 320° Northwest 490 564 31,900 -950 Descending Winnipeg Center
Mon 02:16:34 PM 50.5500 -96.4667 316° Northwest 490 564 30,100 -950 Descending Winnipeg Center
Mon 02:17:34 PM 50.6500 -96.6000 320° Northwest 500 575 30,000 -50 Descending Winnipeg Center
Mon 02:18:34 PM 50.7667 -96.7500 321° Northwest 500 575 30,000  Level Winnipeg Center
Mon 02:19:34 PM 50.8667 -96.8833 320° Northwest 490 564 30,000  Level Winnipeg Center
Mon 02:20:34 PM 50.9667 -97.0500 314° West 490 564 30,000  Level Winnipeg Center
Mon 02:21:34 PM 51.0667 -97.1833 320° Northwest 490 564 30,000  Level Winnipeg Center
Mon 02:22:34 PM 51.1667 -97.3167 320° Northwest 490 564 30,000  Level Winnipeg Center
Mon 02:23:34 PM 51.2667 -97.4500 320° Northwest 490 564 30,000  Level Winnipeg Center
Mon 02:24:34 PM 51.3667 -97.6167 314° West 490 564 30,000  Level Winnipeg Center
Mon 02:25:34 PM 51.4833 -97.7500 325° Northwest 490 564 30,000  Level Winnipeg Center
Mon 02:26:34 PM 51.5833 -97.8833 320° Northwest 490 564 30,000  Level Winnipeg Center
Mon 02:27:34 PM 51.6833 -98.0500 314° West 480 552 30,000  Level Winnipeg Center
Mon 02:28:34 PM 51.7833 -98.1833 321° Northwest 480 552 30,000  Level Winnipeg Center
Mon 02:29:34 PM 51.8833 -98.3167 321° Northwest 480 552 30,000  Level Winnipeg Center
Mon 02:30:34 PM 51.9833 -98.4667 317° Northwest 480 552 30,000  Level Winnipeg Center
Mon 02:31:34 PM 52.0833 -98.6000 321° Northwest 480 552 30,000  Level Winnipeg Center
Mon 02:32:34 PM 52.1667 -98.7667 309° West 490 564 30,000  Level Winnipeg Center
Mon 02:33:34 PM 52.2667 -98.9000 321° Northwest 490 564 30,000  Level Winnipeg Center
Mon 02:34:34 PM 52.3667 -99.0833 312° West 490 564 30,000  Level Winnipeg Center
Mon 02:35:34 PM 52.4667 -99.2167 321° Northwest 490 564 30,000  Level Winnipeg Center
Mon 02:36:34 PM 52.5833 -99.3667 322° Northwest 490 564 30,000  Level Winnipeg Center
Mon 02:37:34 PM 52.6833 -99.5000 321° Northwest 490 564 30,000  Level Winnipeg Center
Mon 02:38:34 PM 52.7833 -99.6833 312° West 480 552 30,000  Level Winnipeg Center
Mon 02:39:34 PM 52.8667 -99.8167 316° Northwest 490 564 30,000  Level Winnipeg Center
Mon 02:45:07 PM 53.4420 -100.6640 316° Northwest 483 556 30,000  Level FlightAware
Mon 02:45:52 PM 53.5180 -100.7810 318° Northwest 482 555 30,000  Level FlightAware
Mon 02:46:22 PM 53.5690 -100.8590 318° Northwest 481 554 30,000  Level FlightAware
Mon 02:47:12 PM 53.6520 -100.9870 318° Northwest 479 551 30,000  Level FlightAware
Mon 02:47:57 PM 53.7250 -101.1000 318° Northwest 478 550 30,000  Level FlightAware
Mon 02:48:37 PM 53.7840 -101.1920 317° Northwest 477 549 30,000  Level FlightAware
Mon 02:49:17 PM 53.8510 -101.2970 317° Northwest 476 548 30,000  Level FlightAware
Mon 02:49:57 PM 53.9130 -101.3940 317° Northwest 475 547 30,000  Level FlightAware
Mon 02:50:42 PM 53.9920 -101.5190 317° Northwest 475 547 30,000  Level FlightAware
Mon 02:51:17 PM 54.0390 -101.5930 317° Northwest 475 547 30,000  Level FlightAware
Mon 02:52:02 PM 54.1160 -101.7160 317° Northwest 475 547 30,000  Level FlightAware
Mon 02:52:42 PM 54.1800 -101.8180 317° Northwest 474 545 30,000  Level FlightAware
Mon 02:53:27 PM 54.2520 -101.9340 317° Northwest 475 547 30,000  Level FlightAware
Mon 02:54:07 PM 54.3140 -102.0340 317° Northwest 475 547 30,000  Level FlightAware
Mon 02:54:47 PM 54.3820 -102.1450 316° Northwest 475 547 30,000  Level FlightAware
Mon 02:55:32 PM 54.4460 -102.2490 317° Northwest 475 547 30,000  Level FlightAware
Mon 02:56:12 PM 54.5110 -102.3560 316° Northwest 475 547 30,000  Level FlightAware
Mon 02:56:52 PM 54.5650 -102.4450 316° Northwest 475 547 30,000  Level FlightAware
Mon 02:57:32 PM 54.6180 -102.5340 316° Northwest 475 547 30,000  Level FlightAware
Mon 02:58:12 PM 54.6720 -102.6240 316° Northwest 475 547 30,000  Level FlightAware
Mon 02:58:52 PM 54.7260 -102.7140 316° Northwest 475 547 30,000  Level FlightAware
Mon 02:59:42 PM 54.7930 -102.8260 316° Northwest 475 547 30,000 1,714 Level FlightAware
Mon 03:00:02 PM 54.8500 -102.9333 316° Northwest 470 541 32,000 2,308 Climbing Edmonton Center
Mon 03:00:34 PM 54.9167 -103.0500 315° West 470 541 32,000  Level Winnipeg Center
Mon 03:01:34 PM 55.0167 -103.2167 316° Northwest 470 541 32,000  Level Winnipeg Center
Mon 03:02:34 PM 55.1000 -103.3833 311° West 470 541 32,000  Level Winnipeg Center
Mon 03:03:34 PM 55.2000 -103.5333 319° Northwest 470 541 32,000  Level Winnipeg Center
Mon 03:04:34 PM 55.2833 -103.7000 311° West 470 541 32,000  Level Winnipeg Center
Mon 03:05:02 PM 55.3167 -103.7333 330° Northwest 460 529 32,000  Level Edmonton Center
Mon 03:05:34 PM 55.3833 -103.8667 311° West 470 541 32,000  Level Winnipeg Center
Mon 03:06:34 PM 55.4667 -104.0333 311° West 470 541 32,000  Level Winnipeg Center
Mon 03:07:34 PM 55.5667 -104.1833 320° Northwest 470 541 32,000  Level Winnipeg Center
Mon 03:08:02 PM 55.6000 -104.2500 312° West 460 529 32,000  Level Edmonton Center
Mon 03:08:34 PM 55.6500 -104.3500 312° West 460 529 32,000  Level Winnipeg Center
Mon 03:09:34 PM 55.7500 -104.5167 317° Northwest 470 541 32,000  Level Winnipeg Center
Mon 03:10:34 PM 55.8333 -104.6833 312° West 470 541 32,000  Level Winnipeg Center
Mon 03:11:34 PM 55.9333 -104.8500 317° Northwest 460 529 32,000  Level Winnipeg Center
Mon 03:12:34 PM 56.0167 -105.0000 315° West 460 529 32,000  Level Winnipeg Center
Mon 03:13:34 PM 56.1000 -105.1667 312° West 460 529 32,000  Level Winnipeg Center
Mon 03:14:34 PM 56.2000 -105.3333 317° Northwest 460 529 32,000  Level Winnipeg Center
Mon 03:15:34 PM 56.2833 -105.5000 312° West 460 529 32,000  Level Winnipeg Center
Mon 03:16:34 PM 56.3833 -105.6833 315° West 460 529 32,000  Level Winnipeg Center
Mon 03:17:34 PM 56.4833 -105.8167 324° Northwest 460 529 32,000  Level Winnipeg Center
Mon 03:18:34 PM 56.5667 -105.9667 315° West 460 529 32,000  Level Winnipeg Center
Mon 03:19:02 PM 56.6167 -106.0167 331° Northwest 460 529 32,000  Level Edmonton Center
Mon 03:19:34 PM 56.6833 -106.1167 321° Northwest 460 529 32,000  Level Winnipeg Center
Mon 03:20:34 PM 56.7667 -106.2833 312° West 460 529 32,000  Level Winnipeg Center
Mon 03:21:34 PM 56.8833 -106.4333 325° Northwest 460 529 32,000  Level Winnipeg Center
Mon 03:22:34 PM 56.9667 -106.5833 316° Northwest 460 529 32,000  Level Winnipeg Center
Mon 03:23:34 PM 57.0500 -106.7333 316° Northwest 460 529 32,000  Level Winnipeg Center
Mon 03:24:34 PM 57.1667 -106.8833 325° Northwest 460 529 32,000  Level Winnipeg Center
Mon 03:25:34 PM 57.2667 -107.0667 315° West 460 529 32,000  Level Winnipeg Center
Mon 03:26:34 PM 57.3500 -107.2167 316° Northwest 470 541 32,000  Level Winnipeg Center
Mon 03:27:02 PM 57.4000 -107.2333 350° North 460 529 32,000  Level Edmonton Center
Mon 03:27:34 PM 57.4667 -107.3667 313° West 470 541 32,000  Level Winnipeg Center
Mon 03:28:02 PM 57.5000 -107.3833 345° North 460 529 32,000  Level Edmonton Center
Mon 03:29:02 PM 57.5667 -107.5500 307° West 460 529 32,000  Level Edmonton Center
Mon 03:30:02 PM 57.6667 -107.7167 318° Northwest 460 529 32,000  Level Edmonton Center
Mon 03:31:02 PM 57.7833 -107.8833 323° Northwest 450 518 32,000  Level Edmonton Center
Mon 03:32:02 PM 57.8833 -108.0500 318° Northwest 460 529 32,000  Level Edmonton Center
Mon 03:33:02 PM 57.9667 -108.1833 320° Northwest 450 518 32,000  Level Edmonton Center
Mon 03:34:02 PM 58.0667 -108.3667 316° Northwest 460 529 32,000  Level Edmonton Center
Mon 03:35:02 PM 58.1667 -108.5333 319° Northwest 450 518 32,000  Level Edmonton Center
Mon 03:36:02 PM 58.2500 -108.7000 314° West 450 518 32,000  Level Edmonton Center
Mon 03:37:02 PM 58.3500 -108.8667 319° Northwest 450 518 32,000  Level Edmonton Center
Mon 03:38:02 PM 58.4333 -109.0167 317° Northwest 450 518 32,000  Level Edmonton Center
Mon 03:39:02 PM 58.5333 -109.1833 319° Northwest 450 518 32,000  Level Edmonton Center
Mon 03:40:02 PM 58.6333 -109.3667 316° Northwest 450 518 32,000  Level Edmonton Center
Mon 03:41:02 PM 58.7167 -109.5333 314° West 450 518 32,000  Level Edmonton Center
Mon 03:42:02 PM 58.8167 -109.6833 322° Northwest 450 518 32,000  Level Edmonton Center
Mon 03:43:02 PM 58.9000 -109.8500 314° West 450 518 32,000  Level Edmonton Center
Mon 03:44:02 PM 59.0000 -110.0333 317° Northwest 450 518 32,000  Level Edmonton Center
Mon 03:45:02 PM 59.0833 -110.1833 317° Northwest 450 518 32,000  Level Edmonton Center
Mon 03:46:02 PM 59.1667 -110.3667 312° West 440 506 32,000  Level Edmonton Center
Mon 03:47:02 PM 59.2667 -110.5500 317° Northwest 450 518 32,000  Level Edmonton Center
Mon 03:48:02 PM 59.3500 -110.7167 314° West 450 518 32,000  Level Edmonton Center
Mon 03:49:02 PM 59.4500 -110.9000 317° Northwest 450 518 32,000  Level Edmonton Center
Mon 03:50:02 PM 59.5500 -111.0667 320° Northwest 450 518 32,000  Level Edmonton Center
Mon 03:51:02 PM 59.6167 -111.2333 308° West 450 518 32,000  Level Edmonton Center
Mon 03:52:02 PM 59.7167 -111.4333 315° West 450 518 32,000  Level Edmonton Center
Mon 03:53:02 PM 59.8333 -111.6167 322° Northwest 460 529 32,000  Level Edmonton Center
Mon 03:54:02 PM 59.9000 -111.7667 312° West 460 529 32,000  Level Edmonton Center
Mon 03:55:02 PM 60.0000 -111.9667 315° West 450 518 32,000  Level Edmonton Center
Mon 03:56:02 PM 60.0667 -112.1500 306° West 440 506 32,000  Level Edmonton Center
Mon 03:57:02 PM 60.1500 -112.3667 308° West 440 506 32,000  Level Edmonton Center
Mon 03:58:02 PM 60.2167 -112.5500 306° West 440 506 32,000  Level Edmonton Center
Mon 03:59:02 PM 60.2667 -112.7833 293° West 440 506 32,000  Level Edmonton Center
Mon 04:00:02 PM 60.3500 -112.9667 313° West 440 506 32,000  Level Edmonton Center
Mon 04:01:02 PM 60.4167 -113.1833 302° West 440 506 32,000  Level Edmonton Center
Mon 04:02:02 PM 60.5000 -113.3833 310° West 440 506 32,000  Level Edmonton Center
Mon 04:03:02 PM 60.5667 -113.6167 300° West 440 506 32,000  Level Edmonton Center
Mon 04:04:02 PM 60.6333 -113.8333 302° West 440 506 32,000  Level Edmonton Center
Mon 04:05:02 PM 60.7000 -114.0333 304° West 440 506 32,000  Level Edmonton Center
Mon 04:06:02 PM 60.7833 -114.2667 306° West 450 518 32,000  Level Edmonton Center
Mon 04:07:02 PM 60.8333 -114.4500 299° West 450 518 32,000  Level Edmonton Center
Mon 04:08:02 PM 60.9000 -114.6833 301° West 450 518 32,000  Level Edmonton Center
Mon 04:09:02 PM 60.9667 -114.8833 305° West 450 518 32,000  Level Edmonton Center
Mon 04:10:02 PM 61.0333 -115.1167 301° West 440 506 32,000  Level Edmonton Center
Mon 04:11:02 PM 61.1000 -115.3500 301° West 450 518 32,000  Level Edmonton Center
Mon 04:12:02 PM 61.1833 -115.5500 311° West 450 518 32,000  Level Edmonton Center
Mon 04:13:02 PM 61.2500 -115.7833 301° West 450 518 32,000  Level Edmonton Center
Mon 04:14:02 PM 61.3167 -116.0000 303° West 450 518 32,000  Level Edmonton Center
Mon 04:15:02 PM 61.3667 -116.2333 294° West 450 518 32,000  Level Edmonton Center
Mon 04:16:02 PM 61.4333 -116.4667 301° West 450 518 32,000  Level Edmonton Center
Mon 04:17:02 PM 61.5000 -116.6667 305° West 460 529 32,000  Level Edmonton Center
Mon 04:18:02 PM 61.5833 -116.9167 305° West 460 529 32,000  Level Edmonton Center
Mon 04:19:02 PM 61.6500 -117.1667 299° West 460 529 32,000  Level Edmonton Center
Mon 04:20:02 PM 61.7167 -117.4000 301° West 460 529 32,000  Level Edmonton Center
Mon 04:21:02 PM 61.7667 -117.6500 293° West 460 529 32,000  Level Edmonton Center
Mon 04:22:02 PM 61.8333 -117.8667 303° West 460 529 32,000  Level Edmonton Center
Mon 04:23:02 PM 61.9000 -118.1000 301° West 460 529 32,000  Level Edmonton Center
Mon 04:24:02 PM 61.9667 -118.3500 300° West 460 529 32,000  Level Edmonton Center
Mon 04:25:02 PM 62.0333 -118.6000 300° West 460 529 32,000  Level Edmonton Center
Mon 04:26:02 PM 62.1000 -118.8167 303° West 460 529 32,000  Level Edmonton Center
Mon 04:27:02 PM 62.1500 -119.0667 293° West 460 529 32,000  Level Edmonton Center
Mon 04:28:02 PM 62.2167 -119.3167 300° West 460 529 32,000  Level Edmonton Center
Mon 04:29:02 PM 62.2833 -119.5333 304° West 460 529 32,000  Level Edmonton Center
Mon 04:30:02 PM 62.3333 -119.7833 293° West 460 529 32,000  Level Edmonton Center
Mon 04:31:02 PM 62.4000 -120.0500 298° West 450 518 32,000  Level Edmonton Center
Mon 04:32:02 PM 62.4500 -120.3000 293° West 450 518 32,000  Level Edmonton Center
Mon 04:33:02 PM 62.5167 -120.5500 300° West 460 529 32,000  Level Edmonton Center
Mon 04:34:02 PM 62.5833 -120.7833 302° West 460 529 32,000  Level Edmonton Center
Mon 04:35:02 PM 62.6333 -121.0333 294° West 450 518 32,000  Level Edmonton Center
Mon 04:36:02 PM 62.6833 -121.3000 292° West 460 529 32,000  Level Edmonton Center
Mon 04:37:02 PM 62.7500 -121.5167 304° West 450 518 32,000  Level Edmonton Center
Mon 04:38:02 PM 62.8000 -121.7833 292° West 450 518 32,000  Level Edmonton Center
Mon 04:39:02 PM 62.8667 -122.0333 300° West 450 518 32,000  Level Edmonton Center
Mon 04:40:02 PM 62.9167 -122.2667 295° West 450 518 32,000  Level Edmonton Center
Mon 04:41:02 PM 62.9833 -122.5333 299° West 460 529 32,000  Level Edmonton Center
Mon 04:43:00 PM 63.0473 -123.0745 285° West  Level FlightAware
Mon 04:50:00 PM 63.2579 -125.0195 284° West  Level FlightAware
Mon 04:51:00 PM 63.2858 -125.2996 283° West  Level FlightAware
Mon 04:52:00 PM 63.3132 -125.5802 282° West  Level FlightAware
Mon 04:53:00 PM 63.3583 -125.8614 291° West  Level FlightAware
Mon 04:54:00 PM 63.4035 -126.1311 291° West  Level FlightAware
Mon 04:55:00 PM 63.4482 -126.4016 290° West  Level FlightAware
Mon 04:56:00 PM 63.4925 -126.6730 290° West  Level FlightAware
Mon 04:57:00 PM 63.5362 -126.9452 290° West  Level FlightAware
Mon 04:58:00 PM 63.5793 -127.2183 290° West  Level FlightAware
Mon 04:59:00 PM 63.6220 -127.4922 289° West  Level FlightAware
Mon 05:00:00 PM 63.6642 -127.7669 289° West  Level FlightAware
Mon 05:01:00 PM 63.7040 -128.0437 288° West  Level FlightAware
Mon 05:02:00 PM 63.7432 -128.3214 288° West  Level FlightAware
Mon 05:03:00 PM 63.7819 -128.5998 288° West  Level FlightAware
Mon 05:04:00 PM 63.8200 -128.8790 287° West  Level FlightAware
Mon 05:05:00 PM 63.8576 -129.1590 287° West  Level FlightAware
Mon 05:06:00 PM 63.8946 -129.4397 287° West  Level FlightAware
Mon 05:07:00 PM 63.9311 -129.7212 287° West  Level FlightAware
Mon 05:08:00 PM 63.9670 -130.0034 282° West  Level FlightAware
Mon 05:09:00 PM 63.9939 -130.2911 282° West  Level FlightAware
Mon 05:10:00 PM 64.0201 -130.5793 282° West  Level FlightAware
Mon 05:11:00 PM 64.0459 -130.8681 282° West  Level FlightAware
Mon 05:12:00 PM 64.0710 -131.1574 281° West  Level FlightAware
Mon 05:13:00 PM 64.0958 -131.4470 281° West  Level FlightAware
Mon 05:14:00 PM 64.1200 -131.7371 281° West  Level FlightAware
Mon 05:15:00 PM 64.1437 -132.0277 281° West  Level FlightAware
Mon 05:16:00 PM 64.1667 -132.3188 280° West  Level FlightAware
Mon 05:17:00 PM 64.1892 -132.6103 280° West  Level FlightAware
Mon 05:18:00 PM 64.2111 -132.9023 280° West  Level FlightAware
Mon 05:19:00 PM 64.2324 -133.1948 280° West  Level FlightAware
Mon 05:20:00 PM 64.2531 -133.4877 279° West  Level FlightAware
Mon 05:21:00 PM 64.2733 -133.7811 279° West  Level FlightAware
Mon 05:22:00 PM 64.2928 -134.0749 279° West  Level FlightAware
Mon 05:23:00 PM 64.3118 -134.3691 279° West  Level FlightAware
Mon 05:24:00 PM 64.3302 -134.6637 278° West  Level FlightAware
Mon 05:25:00 PM 64.3479 -134.9586 278° West  Level FlightAware
Mon 05:26:00 PM 64.3651 -135.2540 278° West  Level FlightAware
Mon 05:27:00 PM 64.3817 -135.5497 278° West  Level FlightAware
Mon 05:28:00 PM 64.3977 -135.8458 277° West  Level FlightAware
Mon 05:29:00 PM 64.4131 -136.1422 277° West  Level FlightAware
Mon 05:30:00 PM 64.4279 -136.4389 277° West  Level FlightAware
Mon 05:31:00 PM 64.4421 -136.7359 276° West  Level FlightAware
Mon 05:32:00 PM 64.4557 -137.0333 276° West  Level FlightAware
Mon 05:33:00 PM 64.4686 -137.3309 275° West  Level FlightAware
Mon 05:34:00 PM 64.4800 -137.6291 275° West  Level FlightAware
Mon 05:35:00 PM 64.4908 -137.9274 275° West  Level FlightAware
Mon 05:36:00 PM 64.5010 -138.2260 275° West  Level FlightAware
Mon 05:37:00 PM 64.5106 -138.5248 274° West  Level FlightAware
Mon 05:38:00 PM 64.5196 -138.8238 274° West  Level FlightAware
Mon 05:39:00 PM 64.5280 -139.1230 274° West  Level FlightAware
Mon 05:39:19 PM 64.5333 -139.0333 273° West 460 529 32,000  Level Anchorage Center
Mon 05:40:00 PM 64.5357 -139.4224 274° West  Level FlightAware
Mon 05:40:20 PM 64.5500 -139.3333 277° West 470 541 32,000  Level Anchorage Center
Mon 05:41:00 PM 64.5429 -139.7220 273° West  Level FlightAware
Mon 05:41:20 PM 64.5500 -139.6333 270° West 470 541 32,000  Level Anchorage Center
Mon 05:42:00 PM 64.5495 -140.0216 273° West  Level FlightAware
Mon 05:42:20 PM 64.5500 -139.9500 270° West 470 541 32,000  Level Anchorage Center
Mon 05:43:00 PM 64.5554 -140.3215 273° West  Level FlightAware
Mon 05:43:20 PM 64.5667 -140.2500 278° West 470 541 32,000  Level Anchorage Center
Mon 05:44:00 PM 64.5608 -140.6214 273° West  Level FlightAware
Mon 05:44:20 PM 64.5667 -140.5500 270° West 480 552 32,000  Level Anchorage Center
Mon 05:45:20 PM 64.5833 -140.8667 277° West 460 529 32,000  Level Anchorage Center
Mon 05:46:20 PM 64.5833 -141.1667 270° West 480 552 32,000  Level Anchorage Center
Mon 05:47:20 PM 64.6000 -141.4833 277° West 480 552 32,000  Level Anchorage Center
Mon 05:48:20 PM 64.6167 -141.7833 278° West 470 541 32,000  Level Anchorage Center
Mon 05:49:20 PM 64.6333 -142.0833 278° West 480 552 32,000  Level Anchorage Center
Mon 05:50:20 PM 64.6500 -142.4000 277° West 480 552 32,000  Level Anchorage Center
Mon 05:51:21 PM 64.6667 -142.7000 278° West 470 541 32,000 250 Level Anchorage Center
Mon 05:52:20 PM 64.6667 -143.0167 270° West 470 541 32,500 500 Climbing Anchorage Center
Mon 05:53:21 PM 64.6833 -143.3167 278° West 480 552 33,000 497 Climbing Anchorage Center
Mon 05:55:21 PM 64.7167 -143.9667 277° West 470 541 34,000 333 Climbing Anchorage Center
Mon 05:56:21 PM 64.7167 -144.2833 270° West 470 541 34,000  Level Anchorage Center
Mon 05:57:21 PM 64.7333 -144.5667 278° West 470 541 34,000  Level Anchorage Center
Mon 05:58:21 PM 64.7333 -144.8667 270° West 470 541 34,000  Level Anchorage Center
Mon 05:59:21 PM 64.7500 -145.2000 277° West 480 552 34,000  Level Anchorage Center
Mon 06:00:21 PM 64.7500 -145.5000 270° West 470 541 34,000  Level Anchorage Center
Mon 06:01:21 PM 64.7667 -145.8167 277° West 470 541 34,000  Level Anchorage Center
Mon 06:02:21 PM 64.7667 -146.1167 270° West 470 541 34,000  Level Anchorage Center
Mon 06:03:22 PM 64.7667 -146.4000 270° West 470 541 34,000  Level Anchorage Center
Mon 06:04:22 PM 64.7833 -146.7333 277° West 470 541 34,000  Level Anchorage Center
Mon 06:05:22 PM 64.7833 -147.0333 270° West 470 541 34,000  Level Anchorage Center
Mon 06:06:22 PM 64.7833 -147.3500 270° West 480 552 34,000  Level Anchorage Center
Mon 06:07:22 PM 64.7833 -147.6167 270° West 460 529 34,000  Level Anchorage Center
Mon 06:08:22 PM 64.7833 -147.9500 270° West 460 529 34,000  Level Anchorage Center
Mon 06:09:22 PM 64.8000 -148.2333 278° West 480 552 34,000  Level Anchorage Center
Mon 06:10:22 PM 64.8000 -148.5667 270° West 470 541 34,000  Level Anchorage Center
Mon 06:12:22 PM 64.8167 -149.1833 274° West 470 541 34,000  Level Anchorage Center
Mon 06:13:23 PM 64.8167 -149.5000 270° West 470 541 34,000  Level Anchorage Center
Mon 06:14:23 PM 64.8167 -149.8000 270° West 470 541 34,000  Level Anchorage Center
Mon 06:15:23 PM 64.8167 -150.1167 270° West 480 552 34,000  Level Anchorage Center
Mon 06:16:23 PM 64.8333 -150.4333 277° West 470 541 34,000  Level Anchorage Center
Mon 06:17:23 PM 64.8333 -150.7500 270° West 470 541 34,000  Level Anchorage Center
Mon 06:18:23 PM 64.8333 -151.0500 270° West 480 552 34,000  Level Anchorage Center
Mon 06:19:23 PM 64.8333 -151.3667 270° West 470 541 34,000  Level Anchorage Center
Mon 06:20:23 PM 64.8333 -151.6667 270° West 460 529 34,000  Level Anchorage Center
Mon 06:21:24 PM 64.8333 -151.9667 270° West 460 529 34,000  Level Anchorage Center
Mon 06:22:24 PM 64.8167 -152.2500 262° West 450 518 34,000  Level Anchorage Center
Mon 06:23:23 PM 64.8167 -152.5667 270° West 460 529 34,000  Level Anchorage Center
Mon 06:24:23 PM 64.8167 -152.8667 270° West 470 541 34,000  Level Anchorage Center
Mon 06:25:24 PM 64.8167 -153.1833 270° West 470 541 34,000  Level Anchorage Center
Mon 06:26:24 PM 64.8167 -153.4833 270° West 470 541 34,000  Level Anchorage Center
Mon 06:27:24 PM 64.8000 -153.8167 263° West 480 552 34,000  Level Anchorage Center
Mon 06:28:24 PM 64.8000 -154.1167 270° West 480 552 34,000  Level Anchorage Center
Mon 06:29:24 PM 64.8000 -154.4333 270° West 480 552 34,000  Level Anchorage Center
Mon 06:30:24 PM 64.7833 -154.7500 263° West 470 541 34,000  Level Anchorage Center
Mon 06:31:24 PM 64.7833 -155.0667 270° West 470 541 34,000  Level Anchorage Center
Mon 06:32:24 PM 64.7667 -155.3667 263° West 470 541 34,000  Level Anchorage Center
Mon 06:33:25 PM 64.7667 -155.6833 270° West 480 552 34,000  Level Anchorage Center
Mon 06:34:25 PM 64.7500 -155.9833 263° West 460 529 34,000  Level Anchorage Center
Mon 06:35:25 PM 64.7500 -156.3000 270° West 470 541 34,000  Level Anchorage Center
Mon 06:36:25 PM 64.7333 -156.6000 263° West 460 529 34,000  Level Anchorage Center
Mon 06:37:25 PM 64.7167 -156.9000 263° West 480 552 34,000  Level Anchorage Center
Mon 06:38:25 PM 64.6500 -157.1667 240° Southwest 470 541 34,000  Level Anchorage Center
Mon 06:39:25 PM 64.6000 -157.4333 246° West 460 529 34,000  Level Anchorage Center
Mon 06:40:25 PM 64.5333 -157.7167 241° Southwest 470 541 34,000  Level Anchorage Center
Mon 06:41:26 PM 64.4833 -158.0000 248° West 470 541 34,000  Level Anchorage Center
Mon 06:42:25 PM 64.4167 -158.2833 242° Southwest 480 552 34,000  Level Anchorage Center
Mon 06:43:26 PM 64.3667 -158.5500 247° West 480 552 34,000  Level Anchorage Center
Mon 06:44:26 PM 64.3000 -158.8333 242° Southwest 490 564 34,000  Level Anchorage Center
Mon 06:45:26 PM 64.2500 -159.1167 248° West 480 552 34,000  Level Anchorage Center
Mon 06:46:26 PM 64.1833 -159.3833 240° Southwest 490 564 34,000  Level Anchorage Center
Mon 06:47:26 PM 64.1167 -159.6500 240° Southwest 480 552 34,000  Level Anchorage Center
Mon 06:48:26 PM 64.0667 -159.9167 247° West 470 541 34,000  Level Anchorage Center
Mon 06:49:27 PM 64.0000 -160.1833 240° Southwest 470 541 34,000  Level Anchorage Center
Mon 06:50:27 PM 63.9333 -160.4500 240° Southwest 470 541 34,000  Level Anchorage Center
Mon 06:51:26 PM 63.8667 -160.7167 241° Southwest 480 552 34,000  Level Anchorage Center
Mon 06:52:27 PM 63.8000 -160.9833 241° Southwest 460 529 34,000  Level Anchorage Center
Mon 06:53:27 PM 63.7333 -161.2333 239° Southwest 480 552 34,000  Level Anchorage Center
Mon 06:54:27 PM 63.6667 -161.4833 239° Southwest 470 541 34,000  Level Anchorage Center
Mon 06:55:27 PM 63.6000 -161.7333 239° Southwest 470 541 34,000  Level Anchorage Center
Mon 06:56:27 PM 63.5167 -161.9833 233° Southwest 470 541 34,000  Level Anchorage Center
Mon 06:57:27 PM 63.4500 -162.2500 241° Southwest 470 541 34,000  Level Anchorage Center
Mon 06:58:28 PM 63.3833 -162.4833 238° Southwest 460 529 34,000  Level Anchorage Center
Mon 06:59:27 PM 63.3000 -162.7333 234° Southwest 470 541 34,000  Level Anchorage Center
Mon 07:00:27 PM 63.2500 -163.0167 249° West 470 541 34,000  Level Anchorage Center
Mon 07:01:28 PM 63.2167 -163.2833 255° West 460 529 34,000  Level Anchorage Center
Mon 07:02:28 PM 63.1667 -163.5500 248° West 470 541 34,000  Level Anchorage Center
Mon 07:03:28 PM 63.1167 -163.7667 243° Southwest 470 541 34,000  Level Anchorage Center
Mon 07:04:28 PM 63.0667 -164.0833 251° West 460 529 34,000  Level Anchorage Center
Mon 07:05:28 PM 63.0167 -164.3500 248° West 470 541 34,000  Level Anchorage Center
Mon 07:06:28 PM 62.9667 -164.6167 248° West 460 529 34,000  Level Anchorage Center
Mon 07:07:28 PM 62.9167 -164.8167 241° Southwest 460 529 34,000  Level Anchorage Center
Mon 07:08:29 PM 62.8667 -165.1333 251° West 460 529 34,000  Level Anchorage Center
Mon 07:10:14 PM 62.7667 -165.6000 245° Southwest 460 529 34,000  Level Anchorage Center
Mon 07:11:14 PM 62.7167 -165.8667 248° West 470 541 34,000  Level Anchorage Center
Mon 07:12:14 PM 62.6500 -166.1167 240° Southwest 470 541 34,000  Level Anchorage Center
Mon 07:13:14 PM 62.6000 -166.3833 248° West 470 541 34,000  Level Anchorage Center
Mon 07:14:14 PM 62.5500 -166.6333 247° West 460 529 34,000  Level Anchorage Center
Mon 07:15:14 PM 62.5000 -166.8833 247° West 470 541 34,000  Level Anchorage Center
Mon 07:16:15 PM 62.4333 -167.1500 242° Southwest 470 541 34,000  Level Anchorage Center
Mon 07:17:14 PM 62.3833 -167.4000 247° West 460 529 34,000  Level Anchorage Center
Mon 07:18:15 PM 62.3333 -167.6500 247° West 470 541 34,000  Level Anchorage Center
Mon 07:19:15 PM 62.2667 -167.9000 240° Southwest 470 541 34,000  Level Anchorage Center
Mon 07:20:15 PM 62.2167 -168.1500 247° West 470 541 34,000  Level Anchorage Center
Mon 07:21:15 PM 62.1500 -168.4000 240° Southwest 460 529 34,000  Level Anchorage Center
Mon 07:22:15 PM 62.1000 -168.6333 245° Southwest 460 529 34,000  Level Anchorage Center
Mon 07:23:15 PM 62.0333 -168.8833 240° Southwest 460 529 34,000  Level Anchorage Center
Mon 07:24:15 PM 61.9833 -169.1167 246° West 450 518 34,000  Level Anchorage Center
Mon 07:25:15 PM 61.9167 -169.3667 241° Southwest 460 529 34,000  Level Anchorage Center
Mon 07:26:15 PM 61.8667 -169.6167 247° West 460 529 34,000  Level Anchorage Center
Mon 07:27:15 PM 61.8000 -169.8500 239° Southwest 460 529 34,000  Level Anchorage Center
Mon 07:28:15 PM 61.7333 -170.1000 241° Southwest 470 541 34,000  Level Anchorage Center
Mon 07:29:15 PM 61.6833 -170.3500 247° West 470 541 34,000  Level Anchorage Center
Mon 07:30:15 PM 61.6167 -170.5833 239° Southwest 470 541 34,000  Level Anchorage Center
Mon 07:31:15 PM 61.5500 -170.8167 239° Southwest 470 541 34,000  Level Anchorage Center
Mon 07:32:15 PM 61.5000 -171.0667 247° West 460 529 34,000  Level Anchorage Center
Mon 07:33:15 PM 61.4333 -171.3000 239° Southwest 460 529 34,000  Level Anchorage Center
Mon 07:34:15 PM 61.3667 -171.5500 241° Southwest 470 541 34,000  Level Anchorage Center
Mon 07:35:15 PM 61.3000 -171.7833 239° Southwest 470 541 34,000  Level Anchorage Center
Mon 07:36:15 PM 61.2333 -172.0167 239° Southwest 470 541 34,000  Level Anchorage Center
Mon 07:37:16 PM 61.1833 -172.2500 246° West 460 529 34,000  Level Anchorage Center
Mon 07:38:16 PM 61.1000 -172.4833 234° Southwest 460 529 34,000  Level Anchorage Center
Mon 07:39:16 PM 61.0333 -172.7167 240° Southwest 460 529 34,000  Level Anchorage Center
Mon 07:40:16 PM 60.9833 -172.9333 245° Southwest 460 529 34,000  Level Anchorage Center
Mon 07:41:16 PM 60.9167 -173.1667 240° Southwest 470 541 34,000  Level Anchorage Center
Mon 07:42:16 PM 60.8500 -173.4000 240° Southwest 460 529 34,000  Level Anchorage Center
Mon 07:43:16 PM 60.7833 -173.6333 240° Southwest 460 529 34,000  Level Anchorage Center
Mon 07:44:16 PM 60.7167 -173.8500 238° Southwest 460 529 34,000  Level Anchorage Center
Mon 07:45:16 PM 60.6500 -174.0667 238° Southwest 470 541 34,000  Level Anchorage Center
Mon 07:46:16 PM 60.5833 -174.3000 240° Southwest 470 541 34,000  Level Anchorage Center
Mon 07:47:16 PM 60.5000 -174.5167 232° Southwest 460 529 34,000  Level Anchorage Center
Mon 07:48:16 PM 60.4333 -174.7500 240° Southwest 470 541 34,000  Level Anchorage Center
Mon 07:49:16 PM 60.3667 -174.9833 240° Southwest 480 552 34,000  Level Anchorage Center
Mon 07:50:16 PM 60.3000 -175.2000 238° Southwest 480 552 34,000  Level Anchorage Center
Mon 07:52:00 PM 60.2000 -175.6333 237° Southwest 479 551 34,000  Level Anchorage Center
Mon 07:59:00 PM 59.6866 -177.1688 236° Southwest 479 551 34,000  Level FlightAware
Mon 08:00:00 PM 59.6119 -177.3843 235° Southwest 479 551 34,000  Level FlightAware
Mon 08:01:00 PM 59.5367 -177.5988 235° Southwest 479 551 34,000  Level FlightAware
Mon 08:02:00 PM 59.4613 -177.8123 235° Southwest 479 551 34,000  Level FlightAware
Mon 08:03:00 PM 59.3854 -178.0249 235° Southwest 479 551 34,000  Level FlightAware
Mon 08:04:00 PM 59.3092 -178.2366 235° Southwest 479 551 34,000 674 Level FlightAware
Mon 08:04:29 PM 59.2833 -178.3000 235° Southwest 474 545 35,000  Climbing Anchorage Center
Mon 08:05:00 PM 59.2327 -178.4473 235° Southwest 479 551 34,000 -659 Descending FlightAware
Mon 08:06:00 PM 59.1559 -178.6571 234° Southwest 479 551 34,000  Level FlightAware
Mon 08:07:00 PM 59.0787 -178.8659 234° Southwest 479 551 34,000  Level FlightAware
Mon 08:08:00 PM 59.0012 -179.0738 234° Southwest 479 551 34,000  Level FlightAware
Mon 08:09:00 PM 58.9233 -179.2808 234° Southwest 479 551 34,000 500 Level FlightAware
Mon 08:10:00 PM 58.8217 -179.5413 234° Southwest 474 545 35,000 500 Climbing FlightAware
Mon 08:11:00 PM 58.7436 -179.7449 233° Southwest 474 545 35,000  Level FlightAware
Mon 08:12:00 PM 58.6652 -179.9476 233° Southwest 474 545 35,000  Level FlightAware
Mon 08:13:00 PM 58.5865 179.8505 233° Southwest 474 545 35,000  Level FlightAware
Mon 08:14:00 PM 58.5074 179.6496 233° Southwest 474 545 35,000  Level FlightAware
Mon 08:15:00 PM 58.4281 179.4496 233° Southwest 474 545 35,000  Level FlightAware
Mon 08:16:00 PM 58.3484 179.2505 233° Southwest 474 545 35,000  Level FlightAware
Mon 08:16:41 PM 58.3167 179.1833 233° Southwest 474 545 35,000  Level Anchorage Center
Mon 08:17:00 PM 58.2685 179.0523 232° Southwest 474 545 35,000  Level FlightAware
Mon 08:18:00 PM 58.1882 178.8550 232° Southwest 474 545 35,000  Level FlightAware
Mon 08:19:00 PM 58.1076 178.6586 232° Southwest 474 545 35,000  Level FlightAware
Mon 08:20:00 PM 58.0268 178.4630 232° Southwest 474 545 35,000  Level FlightAware
Mon 08:21:00 PM 57.9456 178.2684 232° Southwest 474 545 35,000  Level FlightAware
Mon 08:22:00 PM 57.8641 178.0746 232° Southwest 474 545 35,000  Level FlightAware
Mon 08:23:00 PM 57.8242 177.9897 232° Southwest 474 545 35,000  Level FlightAware
Mon 08:24:00 PM 57.7410 177.7940 231° Southwest 474 545 35,000  Level FlightAware
Mon 08:25:00 PM 57.6575 177.5991 231° Southwest 474 545 35,000  Level FlightAware
Mon 08:26:00 PM 57.5738 177.4052 231° Southwest 474 545 35,000  Level FlightAware
Mon 08:27:00 PM 57.4897 177.2121 231° Southwest 474 545 35,000  Level FlightAware
Mon 08:28:00 PM 57.4054 177.0199 231° Southwest 474 545 35,000  Level FlightAware
Mon 08:29:00 PM 57.3207 176.8286 231° Southwest 474 545 35,000  Level FlightAware
Mon 08:29:29 PM 57.2667 176.7000 230° Southwest 475 547 35,000  Level Anchorage Center
Mon 08:30:00 PM 57.2358 176.6382 230° Southwest 474 545 35,000  Level FlightAware
Mon 08:31:00 PM 57.1506 176.4487 230° Southwest 474 545 35,000  Level FlightAware
Mon 08:32:00 PM 57.0651 176.2600 230° Southwest 474 545 35,000  Level FlightAware
Mon 08:33:00 PM 56.9793 176.0722 230° Southwest 474 545 35,000  Level FlightAware
Mon 08:34:00 PM 56.8932 175.8853 230° Southwest 474 545 35,000  Level FlightAware
Mon 08:35:00 PM 56.7640 175.6018 229° Southwest 475 547 35,000  Level FlightAware
Mon 08:36:00 PM 56.6793 175.4216 229° Southwest 475 547 35,000  Level FlightAware
Mon 08:37:00 PM 56.5943 175.2423 229° Southwest 475 547 35,000  Level FlightAware
Mon 08:38:00 PM 56.5091 175.0637 229° Southwest 475 547 35,000  Level FlightAware
Mon 08:39:00 PM 56.4236 174.8860 229° Southwest 475 547 35,000  Level FlightAware
Mon 08:40:00 PM 56.3379 174.7090 229° Southwest 475 547 35,000  Level FlightAware
Mon 08:41:00 PM 56.2519 174.5329 229° Southwest 475 547 35,000  Level FlightAware
Mon 08:42:00 PM 56.1657 174.3575 228° Southwest 475 547 35,000  Level FlightAware
Mon 08:43:00 PM 56.0792 174.1830 228° Southwest 475 547 35,000  Level FlightAware
Mon 08:43:19 PM 56.0667 174.1667 228° Southwest 465 535 35,000  Level Anchorage Center
Mon 08:43:50 PM 56.0167 174.1000 228° Southwest 470 541 35,000  Level Anchorage Center
Mon 08:44:00 PM 55.9925 174.0092 228° Southwest 475 547 35,000  Level FlightAware
Mon 08:44:50 PM 55.9333 173.9167 231° Southwest 480 552 35,000  Level Anchorage Center
Mon 08:45:00 PM 55.9055 173.8362 228° Southwest 475 547 35,000  Level FlightAware
Mon 08:45:50 PM 55.8500 173.7500 228° Southwest 470 541 35,000  Level Anchorage Center
Mon 08:46:00 PM 55.8183 173.6639 228° Southwest 475 547 35,000  Level FlightAware
Mon 08:46:50 PM 55.7500 173.5833 223° Southwest 460 529 35,000  Level Anchorage Center
Mon 08:47:00 PM 55.7308 173.4925 228° Southwest 475 547 35,000  Level FlightAware
Mon 08:47:50 PM 55.6833 173.4167 235° Southwest 470 541 35,000  Level Anchorage Center
Mon 08:48:00 PM 55.6432 173.3218 228° Southwest 475 547 35,000  Level FlightAware
Mon 08:48:50 PM 55.5833 173.2500 223° Southwest 460 529 35,000  Level Anchorage Center
Mon 08:49:00 PM 55.5484 173.1433 228° Southwest 465 535 35,000  Level FlightAware
Mon 08:49:50 PM 55.5167 173.0833 235° Southwest 460 529 35,000  Level Anchorage Center
Mon 08:50:50 PM 55.4333 172.9000 231° Southwest 460 529 35,000  Level Anchorage Center
Mon 08:51:50 PM 55.3667 172.7500 232° Southwest 460 529 35,000  Level Anchorage Center
Mon 08:52:51 PM 55.2667 172.5833 224° Southwest 450 518 35,000  Level Anchorage Center
Mon 08:53:50 PM 55.1667 172.4000 226° Southwest 450 518 35,000  Level Anchorage Center
Mon 08:54:50 PM 55.1000 172.2667 229° Southwest 450 518 35,000  Level Anchorage Center
Mon 08:55:50 PM 55.0000 172.0833 226° Southwest 470 541 35,000  Level Anchorage Center
Mon 08:56:51 PM 54.9333 171.9333 232° Southwest 470 541 35,000  Level Anchorage Center
Mon 08:57:51 PM 54.8333 171.7500 227° Southwest 460 529 35,000  Level Anchorage Center
Mon 08:58:51 PM 54.7667 171.6167 229° Southwest 460 529 35,000  Level Anchorage Center
Mon 08:59:51 PM 54.6833 171.4167 234° Southwest 450 518 35,000  Level Anchorage Center
Mon 09:00:51 PM 54.6167 171.2333 238° Southwest 460 529 35,000  Level Anchorage Center
Mon 09:01:51 PM 54.5500 171.0667 235° Southwest 450 518 35,000  Level Anchorage Center
Mon 09:02:51 PM 54.4667 170.8833 232° Southwest 450 518 35,000  Level Anchorage Center
Mon 09:03:51 PM 54.4000 170.7333 233° Southwest 450 518 35,000  Level Anchorage Center
Mon 09:04:51 PM 54.3167 170.5333 235° Southwest 460 529 35,000  Level Anchorage Center
Mon 09:05:51 PM 54.2500 170.3833 233° Southwest 450 518 35,000  Level Anchorage Center
Mon 09:06:51 PM 54.1667 170.2000 232° Southwest 450 518 35,000  Level Anchorage Center
Mon 09:07:51 PM 54.1000 170.0500 233° Southwest 470 541 35,000  Level Anchorage Center
Mon 09:08:52 PM 54.0167 169.8667 232° Southwest 450 518 35,000  Level Anchorage Center
Mon 09:09:51 PM 53.9333 169.6667 235° Southwest 450 518 35,000  Level Anchorage Center
Mon 09:10:51 PM 53.8667 169.5167 233° Southwest 460 529 35,000  Level Anchorage Center
Mon 09:11:52 PM 53.8000 169.3500 236° Southwest 450 518 35,000  Level Anchorage Center
Mon 09:12:52 PM 53.7167 169.1833 230° Southwest 470 541 35,000  Level Anchorage Center
Mon 09:13:51 PM 53.6500 168.9833 241° Southwest 470 541 35,000  Level Anchorage Center
Mon 09:14:52 PM 53.6000 168.8167 243° Southwest 460 529 35,000  Level Anchorage Center
Mon 09:15:52 PM 53.5333 168.6167 241° Southwest 460 529 35,000  Level Anchorage Center
Mon 09:18:02 PM 53.4167 168.2333 240° Southwest 459 528 35,000  Level Anchorage Center
Mon 09:24:00 PM 53.0175 167.1120 239° Southwest 459 528 35,000  Level FlightAware
Mon 09:25:00 PM 52.9499 166.9272 239° Southwest 459 528 35,000  Level FlightAware
Mon 09:26:00 PM 52.8821 166.7429 239° Southwest 459 528 35,000  Level FlightAware
Mon 09:27:00 PM 52.8140 166.5592 238° Southwest 459 528 35,000  Level FlightAware
Mon 09:28:00 PM 52.7456 166.3760 238° Southwest 459 528 35,000  Level FlightAware
Mon 09:29:00 PM 52.6769 166.1935 238° Southwest 459 528 35,000  Level FlightAware
Mon 09:30:00 PM 52.6079 166.0115 238° Southwest 459 528 35,000  Level FlightAware
Mon 09:31:00 PM 52.5387 165.8301 238° Southwest 459 528 35,000  Level FlightAware
Mon 09:32:00 PM 52.4692 165.6493 238° Southwest 459 528 35,000  Level FlightAware
Mon 09:33:00 PM 52.3994 165.4690 238° Southwest 459 528 35,000  Level FlightAware
Mon 09:34:00 PM 52.3293 165.2893 237° Southwest 459 528 35,000  Level FlightAware
Mon 09:35:00 PM 52.2590 165.1102 237° Southwest 459 528 35,000  Level FlightAware
Mon 09:36:00 PM 52.1884 164.9317 237° Southwest 459 528 35,000 588 Level FlightAware
Mon 09:36:42 PM 52.1667 164.8833 237° Southwest 465 535 36,000  Climbing Anchorage Center
Mon 09:37:00 PM 52.1175 164.7537 237° Southwest 459 528 35,000 -769 Descending FlightAware
Mon 09:38:00 PM 52.0464 164.5762 237° Southwest 459 528 35,000  Level FlightAware
Mon 09:39:00 PM 51.9750 164.3994 237° Southwest 459 528 35,000  Level FlightAware
Mon 09:40:00 PM 51.9033 164.2231 237° Southwest 459 528 35,000  Level FlightAware
Mon 09:41:00 PM 51.8314 164.0474 236° Southwest 459 528 35,000 500 Level FlightAware
Mon 09:42:00 PM 51.8015 163.9799 236° Southwest 465 535 36,000 500 Climbing FlightAware
Mon 09:43:00 PM 51.7276 163.8010 236° Southwest 465 535 36,000  Level FlightAware
Mon 09:44:00 PM 51.6535 163.6227 236° Southwest 465 535 36,000  Level FlightAware
Mon 09:44:07 PM 51.6500 163.6500 236° Southwest 466 536 36,000  Level Anchorage Center
Mon 09:45:00 PM 51.5791 163.4449 236° Southwest 465 535 36,000  Level FlightAware
Mon 09:46:00 PM 51.5044 163.2677 236° Southwest 465 535 36,000  Level FlightAware
Mon 09:47:00 PM 51.4295 163.0911 236° Southwest 465 535 36,000  Level FlightAware
Mon 09:48:00 PM 51.3543 162.9151 236° Southwest 465 535 36,000  Level FlightAware
Mon 09:49:00 PM 51.2788 162.7397 235° Southwest 465 535 36,000  Level FlightAware
Mon 09:50:00 PM 51.2181 162.6260 236° Southwest 466 536 36,000  Level FlightAware
Mon 09:51:00 PM 51.1452 162.4572 235° Southwest 466 536 36,000  Level FlightAware
Mon 09:52:00 PM 51.0721 162.2890 235° Southwest 466 536 36,000  Level FlightAware
Mon 09:53:00 PM 50.9988 162.1213 235° Southwest 466 536 36,000  Level FlightAware
Mon 09:54:00 PM 50.9252 161.9541 235° Southwest 466 536 36,000  Level FlightAware
Mon 09:55:00 PM 50.8514 161.7874 235° Southwest 466 536 36,000  Level FlightAware
Mon 09:56:00 PM 50.7774 161.6213 235° Southwest 466 536 36,000  Level FlightAware
Mon 09:57:00 PM 50.7031 161.4557 235° Southwest 466 536 36,000  Level FlightAware
Mon 09:58:00 PM 50.6286 161.2906 234° Southwest 466 536 36,000  Level FlightAware
Mon 09:59:00 PM 50.5538 161.1260 234° Southwest 466 536 36,000  Level FlightAware
Mon 10:00:00 PM 50.4789 160.9620 234° Southwest 466 536 36,000  Level FlightAware
Mon 10:01:00 PM 50.4037 160.7985 234° Southwest 466 536 36,000  Level FlightAware
Mon 10:02:00 PM 50.3282 160.6355 234° Southwest 466 536 36,000  Level FlightAware
Mon 10:03:00 PM 50.2526 160.4730 234° Southwest 466 536 36,000  Level FlightAware
Mon 10:03:37 PM 50.2000 160.3833 234° Southwest 454 522 36,000  Level Anchorage Center
Mon 10:04:00 PM 50.1767 160.3110 234° Southwest 466 536 36,000  Level FlightAware
Mon 10:05:00 PM 50.1006 160.1496 234° Southwest 466 536 36,000  Level FlightAware
Mon 10:06:00 PM 50.0242 159.9886 233° Southwest 466 536 36,000  Level FlightAware
Mon 10:07:00 PM 49.9477 159.8282 233° Southwest 466 536 36,000  Level FlightAware
Mon 10:08:00 PM 49.8709 159.6683 233° Southwest 466 536 36,000  Level FlightAware
Mon 10:09:00 PM 49.7863 159.4964 234° Southwest 454 522 36,000  Level FlightAware
Mon 10:10:00 PM 49.7167 159.3500 233° Southwest 454 522 36,000  Level FlightAware
Mon 10:11:00 PM 49.6394 159.1923 233° Southwest 454 522 36,000  Level FlightAware
Mon 10:12:00 PM 49.5619 159.0351 233° Southwest 454 522 36,000  Level FlightAware
Mon 10:13:00 PM 49.4843 158.8784 233° Southwest 454 522 36,000  Level FlightAware
Mon 10:14:00 PM 49.4064 158.7222 232° Southwest 454 522 36,000  Level FlightAware
Mon 10:15:00 PM 49.3283 158.5665 232° Southwest 454 522 36,000  Level FlightAware
Mon 10:16:00 PM 49.2500 158.4113 232° Southwest 454 522 36,000  Level FlightAware
Mon 10:17:00 PM 49.1714 158.2565 232° Southwest 454 522 36,000  Level FlightAware
Mon 10:18:00 PM 49.0927 158.1023 232° Southwest 454 522 36,000  Level FlightAware
Mon 10:19:00 PM 49.0138 157.9485 232° Southwest 454 522 36,000  Level FlightAware
Mon 10:20:00 PM 48.9347 157.7953 232° Southwest 454 522 36,000  Level FlightAware
Mon 10:21:00 PM 48.8553 157.6425 232° Southwest 454 522 36,000  Level FlightAware
Mon 10:22:00 PM 48.7758 157.4902 232° Southwest 454 522 36,000  Level FlightAware
Mon 10:23:00 PM 48.6960 157.3384 231° Southwest 454 522 36,000  Level FlightAware
Mon 10:24:00 PM 48.6161 157.1871 231° Southwest 454 522 36,000  Level FlightAware
Mon 10:25:00 PM 48.5360 157.0362 231° Southwest 454 522 36,000  Level FlightAware
Mon 10:26:00 PM 48.4557 156.8859 231° Southwest 454 522 36,000  Level FlightAware
Mon 10:27:00 PM 48.3751 156.7360 231° Southwest 454 522 36,000  Level FlightAware
Mon 10:28:00 PM 48.2944 156.5865 231° Southwest 454 522 36,000  Level FlightAware
Mon 10:29:00 PM 48.2135 156.4376 231° Southwest 454 522 36,000  Level FlightAware
Mon 10:30:00 PM 48.1324 156.2891 231° Southwest 454 522 36,000  Level FlightAware
Mon 10:31:00 PM 48.0511 156.1411 231° Southwest 454 522 36,000  Level FlightAware
Mon 10:32:00 PM 47.9696 155.9936 230° Southwest 454 522 36,000  Level FlightAware
Mon 10:33:00 PM 47.8880 155.8465 230° Southwest 454 522 36,000  Level FlightAware
Mon 10:34:00 PM 47.8061 155.6999 230° Southwest 454 522 36,000  Level FlightAware
Mon 10:35:00 PM 47.7240 155.5537 230° Southwest 454 522 36,000  Level FlightAware
Mon 10:36:00 PM 47.6418 155.4080 230° Southwest 454 522 36,000  Level FlightAware
Mon 10:37:00 PM 47.5594 155.2628 230° Southwest 454 522 36,000  Level FlightAware
Mon 10:38:00 PM 47.4768 155.1180 230° Southwest 454 522 36,000  Level FlightAware
Mon 10:39:00 PM 47.3940 154.9737 230° Southwest 454 522 36,000  Level FlightAware
Mon 10:40:00 PM 47.3111 154.8298 230° Southwest 454 522 36,000  Level FlightAware
Mon 10:41:00 PM 47.2279 154.6864 229° Southwest 454 522 36,000  Level FlightAware
Mon 10:42:00 PM 47.1446 154.5435 229° Southwest 454 522 36,000  Level FlightAware
Mon 10:43:00 PM 47.0611 154.4009 229° Southwest 454 522 36,000  Level FlightAware
Mon 10:44:00 PM 46.9775 154.2589 229° Southwest 454 522 36,000  Level FlightAware
Mon 10:45:00 PM 46.8936 154.1172 229° Southwest 454 522 36,000  Level FlightAware
Mon 10:46:00 PM 46.8096 153.9760 229° Southwest 454 522 36,000  Level FlightAware
Mon 10:47:00 PM 46.7254 153.8353 229° Southwest 454 522 36,000  Level FlightAware
Mon 10:48:00 PM 46.6410 153.6950 229° Southwest 454 522 36,000  Level FlightAware
Mon 10:49:00 PM 46.5565 153.5551 229° Southwest 454 522 36,000  Level FlightAware
Mon 10:50:00 PM 46.4718 153.4157 229° Southwest 454 522 36,000  Level FlightAware
Mon 10:51:00 PM 46.3869 153.2767 228° Southwest 454 522 36,000  Level FlightAware
Mon 10:52:00 PM 46.3019 153.1381 228° Southwest 454 522 36,000 27 Level FlightAware
Mon 10:53:00 PM 46.2171 153.0007 228° Southwest  Level FlightAware
Mon 10:54:00 PM 46.1317 152.8643 228° Southwest  Level FlightAware
Mon 10:55:00 PM 46.1321 152.8651 228° Southwest  Level FlightAware
Mon 10:56:00 PM 46.0465 152.7292 228° Southwest  Level FlightAware
Mon 10:57:00 PM 45.9607 152.5937 228° Southwest  Level FlightAware
Mon 10:58:00 PM 45.8747 152.4586 228° Southwest  Level FlightAware
Mon 10:59:00 PM 45.7886 152.3240 228° Southwest  Level FlightAware
Mon 11:00:00 PM 45.7024 152.1897 227° Southwest  Level FlightAware
Mon 11:01:00 PM 45.6160 152.0559 227° Southwest  Level FlightAware
Mon 11:02:00 PM 45.5294 151.9225 227° Southwest  Level FlightAware
Mon 11:03:00 PM 45.4427 151.7895 227° Southwest  Level FlightAware
Mon 11:04:00 PM 45.3558 151.6569 227° Southwest  Level FlightAware
Mon 11:05:00 PM 45.2687 151.5247 227° Southwest  Level FlightAware
Mon 11:06:00 PM 45.1816 151.3930 227° Southwest  Level FlightAware
Mon 11:07:00 PM 45.0942 151.2616 227° Southwest  Level FlightAware
Mon 11:08:00 PM 45.0067 151.1306 227° Southwest  Level FlightAware
Mon 11:09:00 PM 44.9191 151.0001 227° Southwest  Level FlightAware
Mon 11:10:00 PM 44.8313 150.8699 226° Southwest  Level FlightAware
Mon 11:11:00 PM 44.7434 150.7401 226° Southwest  Level FlightAware
Mon 11:12:00 PM 44.6553 150.6107 226° Southwest  Level FlightAware
Mon 11:13:00 PM 44.5671 150.4817 226° Southwest  Level FlightAware
Mon 11:14:00 PM 44.4787 150.3531 226° Southwest  Level FlightAware
Mon 11:15:00 PM 44.3902 150.2249 226° Southwest  Level FlightAware
Mon 11:16:00 PM 44.3016 150.0971 226° Southwest  Level FlightAware
Mon 11:17:00 PM 44.2128 149.9697 226° Southwest  Level FlightAware
Mon 11:18:00 PM 44.1238 149.8426 226° Southwest  Level FlightAware
Mon 11:19:00 PM 44.0347 149.7160 226° Southwest  Level FlightAware
Mon 11:20:00 PM 43.9455 149.5897 226° Southwest  Level FlightAware
Mon 11:21:00 PM 43.8562 149.4638 225° Southwest  Level FlightAware
Mon 11:22:00 PM 43.7667 149.3382 225° Southwest  Level FlightAware
Mon 11:23:00 PM 43.6770 149.2131 225° Southwest  Level FlightAware
Mon 11:24:00 PM 43.5873 149.0883 225° Southwest  Level FlightAware
Mon 11:25:00 PM 43.4974 148.9639 225° Southwest  Level FlightAware
Mon 11:26:00 PM 43.4073 148.8398 225° Southwest  Level FlightAware
Mon 11:27:00 PM 43.3172 148.7162 225° Southwest  Level FlightAware
Mon 11:28:00 PM 43.2269 148.5929 225° Southwest  Level FlightAware
Mon 11:28:12 PM 43.3340 148.7390 225° Southwest 451 519 37,000  Level FlightAware
Mon 11:29:00 PM 43.1364 148.4699 225° Southwest  Level FlightAware
Mon 11:29:02 PM 43.2600 148.6380 225° Southwest 444 511 37,000  Level FlightAware
Mon 11:29:52 PM 43.1830 148.5330 225° Southwest 449 517 37,000  Level FlightAware
Mon 11:30:32 PM 43.1280 148.4590 224° Southwest 442 509 37,000  Level FlightAware
Mon 11:31:17 PM 43.0610 148.3670 225° Southwest 440 506 37,000  Level FlightAware
Mon 11:31:52 PM 43.0060 148.2930 225° Southwest 439 505 37,000  Level FlightAware
Mon 11:32:42 PM 42.9330 148.1950 225° Southwest 435 501 37,000  Level FlightAware
Mon 11:33:37 PM 42.8570 148.0930 225° Southwest 434 499 37,000  Level FlightAware
Mon 11:34:22 PM 42.7880 148.0010 224° Southwest 435 501 37,000  Level FlightAware
Mon 11:35:02 PM 42.7330 147.9280 224° Southwest 436 502 37,000  Level FlightAware
Mon 11:35:42 PM 42.6710 147.8450 225° Southwest 437 503 37,000  Level FlightAware
Mon 11:36:27 PM 42.6080 147.7610 224° Southwest 437 503 37,000  Level FlightAware
Mon 11:37:02 PM 42.5540 147.6910 224° Southwest 438 504 37,000  Level FlightAware
Mon 11:37:47 PM 42.4890 147.6050 224° Southwest 446 513 37,000  Level FlightAware
Mon 11:38:47 PM 42.4040 147.4930 224° Southwest 447 514 37,000  Level FlightAware
Mon 11:39:27 PM 42.3400 147.4090 224° Southwest 446 513 37,000  Level FlightAware
Mon 11:40:37 PM 42.2410 147.2790 224° Southwest 437 503 37,000  Level FlightAware
Mon 11:41:22 PM 42.1710 147.1880 224° Southwest 434 499 37,000  Level FlightAware
Mon 11:42:02 PM 42.1170 147.1180 224° Southwest 431 496 37,000  Level FlightAware
Mon 11:42:42 PM 42.0560 147.0390 224° Southwest 429 494 37,000  Level FlightAware
Mon 11:43:17 PM 42.0030 146.9710 224° Southwest 427 491 37,000  Level FlightAware
Mon 11:44:07 PM 41.9340 146.8830 224° Southwest 425 489 37,000  Level FlightAware
Mon 11:44:52 PM 41.8670 146.7960 224° Southwest 429 494 37,000  Level FlightAware
Mon 11:45:32 PM 41.8100 146.7230 224° Southwest 429 494 37,000  Level FlightAware
Mon 11:46:17 PM 41.7440 146.6380 224° Southwest 427 491 37,000  Level FlightAware
Mon 11:46:57 PM 41.6920 146.5720 223° Southwest 428 493 37,000  Level FlightAware
Mon 11:47:37 PM 41.6320 146.4960 223° Southwest 429 494 37,000  Level FlightAware
Mon 11:48:22 PM 41.5650 146.4100 224° Southwest 431 496 37,000  Level FlightAware
Mon 11:49:02 PM 41.5040 146.3330 223° Southwest 431 496 37,000  Level FlightAware
Mon 11:49:42 PM 41.4500 146.2650 223° Southwest 432 497 37,000  Level FlightAware
Mon 11:50:27 PM 41.3810 146.1780 223° Southwest 439 505 37,000  Level FlightAware
Mon 11:51:02 PM 41.3270 146.1120 223° Southwest 431 496 37,000  Level FlightAware
Mon 11:51:52 PM 41.2590 146.0260 224° Southwest 430 495 37,000  Level FlightAware
Mon 11:52:32 PM 41.2000 145.9520 223° Southwest 429 494 37,000  Level FlightAware
Mon 11:53:12 PM 41.1400 145.8780 223° Southwest 430 495 37,000  Level FlightAware
Mon 11:53:57 PM 41.0730 145.7950 223° Southwest 428 493 37,000  Level FlightAware
Mon 11:54:37 PM 41.0150 145.7220 224° Southwest 430 495 37,000  Level FlightAware
Mon 11:55:17 PM 40.9520 145.6450 223° Southwest 438 504 37,000  Level FlightAware
Mon 11:56:02 PM 40.8870 145.5640 223° Southwest 440 506 37,000  Level FlightAware
Mon 11:56:42 PM 40.8280 145.4920 223° Southwest 440 506 37,000  Level FlightAware
Mon 11:57:27 PM 40.7600 145.4100 222° Southwest 443 510 37,000  Level FlightAware
Mon 11:58:07 PM 40.7070 145.3440 223° Southwest 440 506 37,000  Level FlightAware
Mon 11:58:52 PM 40.6320 145.2530 223° Southwest 437 503 37,000  Level FlightAware
Mon 11:59:27 PM 40.5860 145.1970 223° Southwest 437 503 37,000  Level FlightAware
Tue 12:00:12 AM 40.5160 145.1130 222° Southwest 415 478 37,000  Level FlightAware
Tue 12:01:07 AM 40.4490 145.0330 222° Southwest 415 478 37,000  Level FlightAware
Tue 12:01:47 AM 40.3890 144.9590 223° Southwest 419 482 37,000  Level FlightAware
Tue 12:02:32 AM 40.3220 144.8780 223° Southwest 417 480 37,000  Level FlightAware
Tue 12:03:17 AM 40.2570 144.8010 222° Southwest 418 481 37,000  Level FlightAware
Tue 12:03:57 AM 40.2090 144.7430 223° Southwest 418 481 37,000  Level FlightAware
Tue 12:04:37 AM 40.1480 144.6690 223° Southwest 418 481 37,000  Level FlightAware
Tue 12:05:17 AM 40.1000 144.6110 223° Southwest 418 481 37,000  Level FlightAware
Tue 12:05:57 AM 40.0510 144.5520 223° Southwest 418 481 37,000  Level FlightAware
Tue 12:06:47 AM 39.9910 144.4790 223° Southwest 418 481 37,000  Level FlightAware
Tue 12:07:27 AM 39.9430 144.4200 223° Southwest 418 481 37,000  Level FlightAware
Tue 12:08:07 AM 39.8950 144.3620 223° Southwest 418 481 37,000  Level FlightAware
Tue 12:08:47 AM 39.8470 144.3030 223° Southwest 418 481 37,000  Level FlightAware
Tue 12:09:27 AM 39.7990 144.2450 223° Southwest 418 481 37,000  Level FlightAware
Tue 12:10:17 AM 39.7390 144.1720 223° Southwest 418 481 37,000  Level FlightAware
Tue 12:10:57 AM 39.6910 144.1140 223° Southwest 418 481 37,000  Level FlightAware
Tue 12:11:37 AM 39.6430 144.0550 223° Southwest 418 481 37,000  Level FlightAware
Tue 12:12:17 AM 39.5940 143.9970 222° Southwest 418 481 37,000  Level FlightAware
Tue 12:12:57 AM 39.5460 143.9390 223° Southwest 418 481 37,000  Level FlightAware
Tue 12:13:47 AM 39.4860 143.8660 223° Southwest 418 481 37,000  Level FlightAware
Tue 12:16:00 AM 39.2727 143.6311 220° Southwest  Level FlightAware
Tue 12:17:00 AM 39.1763 143.5254 221° Southwest  Level FlightAware
Tue 12:18:00 AM 39.0810 143.4185 221° Southwest  Level FlightAware
Tue 12:19:00 AM 38.9855 143.3119 221° Southwest  Level FlightAware
Tue 12:20:00 AM 38.8873 143.2117 197° South  Level FlightAware
Tue 12:21:00 AM 38.7664 143.1648 197° South  Level FlightAware
Tue 12:22:00 AM 38.6454 143.1180 197° South  Level FlightAware
Tue 12:23:00 AM 38.5244 143.0714 197° South  Level FlightAware
Tue 12:24:00 AM 38.4034 143.0249 197° South  Level FlightAware
Tue 12:25:00 AM 38.2824 142.9786 197° South  Level FlightAware
Tue 12:26:00 AM 38.1614 142.9325 197° South  Level FlightAware
Tue 12:26:07 AM 37.8190 143.1980 197° South 454 522 37,000  Level FlightAware
Tue 12:26:47 AM 37.7370 143.1660 197° South 455 524 37,000  Level FlightAware
Tue 12:27:22 AM 37.6620 143.1370 197° South 456 525 37,000  Level FlightAware
Tue 12:28:02 AM 37.5760 143.1030 197° South 456 525 37,000  Level FlightAware
Tue 12:28:57 AM 37.4620 143.0590 197° South 455 524 37,000  Level FlightAware
Tue 12:29:32 AM 37.4060 143.0230 207° Southwest 448 516 37,000  Level FlightAware
Tue 12:30:22 AM 37.3160 142.9580 210° Southwest 444 511 37,000  Level FlightAware
Tue 12:30:57 AM 37.2460 142.9080 210° Southwest 444 511 37,000  Level FlightAware
Tue 12:31:57 AM 37.1400 142.8350 209° Southwest 444 511 37,000  Level FlightAware
Tue 12:32:37 AM 37.0670 142.7830 210° Southwest 444 511 37,000  Level FlightAware
Tue 12:33:22 AM 36.9840 142.7260 209° Southwest 444 511 37,000  Level FlightAware
Tue 12:34:02 AM 36.9150 142.6780 209° Southwest 446 513 37,000  Level FlightAware
Tue 12:34:57 AM 36.8170 142.6110 209° Southwest 449 517 37,000  Level FlightAware
Tue 12:36:07 AM 36.6860 142.5210 209° Southwest 37,000  Level FlightAware
Tue 12:36:47 AM 36.6170 142.4730 209° Southwest 448 516 37,000 -300 Level FlightAware
Tue 12:37:27 AM 36.5450 142.4240 209° Southwest 444 511 36,600 -1,624 Descending FlightAware
Tue 12:38:12 AM 36.4650 142.3690 209° Southwest 446 513 34,700 -2,625 Descending FlightAware
Tue 12:38:47 AM 36.3980 142.3230 209° Southwest 454 522 33,100 -2,340 Descending FlightAware
Tue 12:39:52 AM 36.2850 142.2470 208° Southwest 426 490 30,800 -2,182 Descending FlightAware
Tue 12:40:37 AM 36.2030 142.1910 209° Southwest 422 486 29,100 -2,188 Descending FlightAware
Tue 12:41:17 AM 36.1370 142.1460 209° Southwest 426 490 27,700 -2,188 Descending FlightAware
Tue 12:42:02 AM 36.0560 142.0910 209° Southwest 406 467 26,000 -2,188 Descending FlightAware
Tue 12:42:42 AM 35.9960 142.0390 215° Southwest 391 450 24,600 -1,575 Descending FlightAware
Tue 12:43:22 AM 35.9630 141.9760 237° Southwest 378 435 23,900 -1,120 Descending FlightAware
Tue 12:43:57 AM 35.9330 141.9070 242° Southwest 377 434 23,200 -1,280 Descending FlightAware
Tue 12:44:37 AM 35.9160 141.8220 256° West 367 422 22,300 -1,389 Descending FlightAware
Tue 12:45:32 AM 35.9080 141.7060 265° West 352 405 21,000 -1,642 Descending FlightAware
Tue 12:46:12 AM 35.9030 141.6250 266° West 346 398 19,700 -1,920 Descending FlightAware
Tue 12:46:47 AM 35.8980 141.5600 265° West 342 394 18,600 -1,835 Descending FlightAware
Tue 12:47:37 AM 35.8910 141.4610 265° West 343 395 17,100 -1,835 Descending FlightAware
Tue 12:48:12 AM 35.8870 141.3960 266° West 339 390 16,000 -1,800 Descending FlightAware
Tue 12:48:57 AM 35.8810 141.3150 265° West 334 384 14,700 -1,867 Descending FlightAware
Tue 12:49:42 AM 35.8750 141.2230 265° West 328 377 13,200 -1,835 Descending FlightAware
Tue 12:50:22 AM 35.8700 141.1480 265° West 323 372 12,100 -1,624 Descending FlightAware
Tue 12:51:07 AM 35.8660 141.0670 267° West 313 360 10,900 -1,412 Descending FlightAware
Tue 12:51:47 AM 35.8620 140.9980 266° West 299 344 10,100 -565 Descending FlightAware
Tue 12:52:32 AM 35.8570 140.9260 265° West 255 293 10,100 -343 Level FlightAware
Tue 12:52:57 AM 35.8550 140.8910 266° West 250 288 9,700 -982 Descending FlightAware
Tue 12:53:27 AM 35.8530 140.8480 267° West 245 282 9,200 -1,200 Descending FlightAware
Tue 12:53:42 AM 35.8520 140.8270 267° West 246 283 8,800 -1,350 Descending FlightAware
Tue 12:54:07 AM 35.8510 140.7930 268° West 248 285 8,300 -1,200 Descending FlightAware
Tue 12:54:32 AM 35.8500 140.7580 268° West 246 283 7,800 -1,080 Descending FlightAware
Tue 12:54:57 AM 35.8500 140.7270 270° West 244 281 7,400 -982 Descending FlightAware
Tue 12:55:27 AM 35.8490 140.6850 268° West 242 278 6,900 -554 Descending FlightAware
Tue 12:56:02 AM 35.8490 140.6370 270° West 237 273 6,800 -800 Descending FlightAware
Tue 12:56:27 AM 35.8530 140.6040 279° West 231 266 6,100 -1,200 Descending FlightAware
Tue 12:56:42 AM 35.8630 140.5900 311° West 242 278 6,000 -133 Descending FlightAware
Tue 12:57:12 AM 35.8960 140.5660 329° Northwest 242 278 6,000 -764 Level FlightAware
Tue 12:57:37 AM 35.9160 140.5520 330° Northwest 236 272 5,300 -1,200 Descending FlightAware
Tue 12:58:07 AM 35.9430 140.5330 330° Northwest 245 282 4,900 -943 Descending FlightAware
Tue 12:58:47 AM 35.9880 140.5000 329° Northwest 246 283 4,200 -982 Descending FlightAware
Tue 12:59:02 AM 36.0020 140.4860 321° Northwest 246 283 4,000 -800 Descending FlightAware
Tue 12:59:17 AM 36.0100 140.4700 302° West 242 278 3,800 -933 Descending FlightAware
Tue 12:59:47 AM 36.0080 140.4360 266° West 252 290 3,300 -873 Descending FlightAware
Tue 01:00:12 AM 35.9890 140.4060 232° Southwest 219 252 3,000 -327 Descending FlightAware
Tue 01:00:42 AM 35.9680 140.3800 225° Southwest 219 252 3,000  Level FlightAware
Tue 01:01:02 AM 35.9550 140.3620 228° Southwest 198 228 3,000 -655 Level FlightAware
Tue 01:01:37 AM 35.9330 140.3340 226° Southwest 185 213 2,400 -960 Descending FlightAware
Tue 01:01:52 AM 35.9240 140.3280 208° Southwest 176 203 2,200 -1,000 Descending FlightAware
Tue 01:02:07 AM 35.9120 140.3200 208° Southwest 167 192 1,900 -600 Descending FlightAware
Tue 01:02:32 AM 35.8970 140.3160 192° South 161 185 1,800 -120 Descending FlightAware
Tue 01:02:57 AM 35.8800 140.3130 188° South 161 185 1,800 -514 Level FlightAware
Tue 01:03:42 AM 35.8510 140.3450 138° Southeast 146 168 1,200 -780 Descending FlightAware
Tue 01:04:37 AM 35.8200 140.3670 150° Southeast 500 -764 Descending FlightAware

Login

Don't have an account? Register now (free) for customized features, flight alerts, and more!